sensor_id;sensor_type;location;lat;lon;timestamp;pressure;altitude;pressure_sealevel;temperature;humidity
38058;BME280;23862;51.972;4.618;2022-07-29T00:00:42;146694.22;;;15.74;100.00
38058;BME280;23862;51.972;4.618;2022-07-29T00:03:16;146686.56;;;15.71;100.00
38058;BME280;23862;51.972;4.618;2022-07-29T00:05:42;146673.81;;;15.66;100.00
38058;BME280;23862;51.972;4.618;2022-07-29T00:08:07;146671.22;;;15.65;100.00
38058;BME280;23862;51.972;4.618;2022-07-29T00:10:33;146677.63;;;15.68;100.00
38058;BME280;23862;51.972;4.618;2022-07-29T00:12:59;146661.00;;;15.61;100.00
38058;BME280;23862;51.972;4.618;2022-07-29T00:15:24;146662.31;;;15.61;100.00
38058;BME280;23862;51.972;4.618;2022-07-29T00:17:50;146658.47;;;15.60;100.00
38058;BME280;23862;51.972;4.618;2022-07-29T00:20:15;146659.75;;;15.60;100.00
38058;BME280;23862;51.972;4.618;2022-07-29T00:22:41;144674.81;;;15.64;100.00
38058;BME280;23862;51.972;4.618;2022-07-29T00:25:07;145534.06;;;15.60;100.00
38058;BME280;23862;51.972;4.618;2022-07-29T00:27:33;134984.03;;;15.54;100.00
38058;BME280;23862;51.972;4.618;2022-07-29T00:29:58;132582.28;;;15.52;100.00
38058;BME280;23862;51.972;4.618;2022-07-29T00:32:26;127442.59;;;15.49;100.00
38058;BME280;23862;51.972;4.618;2022-07-29T00:34:51;123336.59;;;15.46;100.00
38058;BME280;23862;51.972;4.618;2022-07-29T00:37:37;116853.56;;;15.47;100.00
38058;BME280;23862;51.972;4.618;2022-07-29T00:40:02;115133.78;;;15.39;100.00
38058;BME280;23862;51.972;4.618;2022-07-29T00:45:13;105939.41;;;15.37;100.00
38058;BME280;23862;51.972;4.618;2022-07-29T00:47:40;100841.22;;;15.37;100.00
38058;BME280;23862;51.972;4.618;2022-07-29T00:50:06;99820.75;;;15.36;100.00
38058;BME280;23862;51.972;4.618;2022-07-29T00:52:37;94394.69;;;15.37;100.00
38058;BME280;23862;51.972;4.618;2022-07-29T00:55:04;90998.91;;;15.33;100.00
38058;BME280;23862;51.972;4.618;2022-07-29T00:57:29;89636.13;;;15.28;100.00
38058;BME280;23862;51.972;4.618;2022-07-29T00:59:55;84559.28;;;15.28;100.00
38058;BME280;23862;51.972;4.618;2022-07-29T01:02:21;78811.31;;;15.25;100.00
38058;BME280;23862;51.972;4.618;2022-07-29T01:04:48;74759.00;;;15.24;100.00
38058;BME280;23862;51.972;4.618;2022-07-29T01:07:14;72059.19;;;15.22;100.00
38058;BME280;23862;51.972;4.618;2022-07-29T01:09:40;70703.28;;;15.16;100.00
38058;BME280;23862;51.972;4.618;2022-07-29T01:12:05;69696.31;;;15.19;100.00
38058;BME280;23862;51.972;4.618;2022-07-29T01:14:34;68670.13;;;15.06;100.00
38058;BME280;23862;51.972;4.618;2022-07-29T01:17:09;63962.09;;;15.10;100.00
38058;BME280;23862;51.972;4.618;2022-07-29T01:19:53;61603.19;;;15.05;100.00
38058;BME280;23862;51.972;4.618;2022-07-29T01:22:25;59249.31;;;15.03;100.00
38058;BME280;23862;51.972;4.618;2022-07-29T01:29:45;51525.69;;;14.98;100.00
38058;BME280;23862;51.972;4.618;2022-07-29T01:32:19;47837.44;;;14.96;100.00
38058;BME280;23862;51.972;4.618;2022-07-29T01:34:56;44156.31;;;14.97;100.00
38058;BME280;23862;51.972;4.618;2022-07-29T01:40:08;40477.25;;;14.97;100.00
38058;BME280;23862;51.972;4.618;2022-07-29T01:42:39;39812.19;;;15.02;100.00
38058;BME280;23862;51.972;4.618;2022-07-29T01:47:47;37802.63;;;14.96;100.00
38058;BME280;23862;51.972;4.618;2022-07-29T01:50:18;36462.66;;;14.90;100.00
38058;BME280;23862;51.972;4.618;2022-07-29T01:52:53;35129.63;;;14.94;100.00
38058;BME280;23862;51.972;4.618;2022-07-29T01:55:19;32795.81;;;14.97;100.00
38058;BME280;23862;51.972;4.618;2022-07-29T01:57:47;32126.97;;;14.95;100.00
38058;BME280;23862;51.972;4.618;2022-07-29T02:00:13;32128.25;;;14.97;100.00
38058;BME280;23862;51.972;4.618;2022-07-29T02:02:42;31126.03;;;14.94;100.00
38058;BME280;23862;51.972;4.618;2022-07-29T02:05:10;31788.91;;;14.87;100.00
38058;BME280;23862;51.972;4.618;2022-07-29T02:07:35;29790.47;;;14.91;100.00
38058;BME280;23862;51.972;4.618;2022-07-29T02:10:02;29785.91;;;14.83;100.00
38058;BME280;23862;51.972;4.618;2022-07-29T02:12:29;28450.81;;;14.80;100.00
38058;BME280;23862;51.972;4.618;2022-07-29T02:14:56;26786.91;;;14.83;100.00
38058;BME280;23862;51.972;4.618;2022-07-29T02:17:26;26783.25;;;14.76;100.00
38058;BME280;23862;51.972;4.618;2022-07-29T02:19:55;26118.91;;;14.79;100.00
38058;BME280;23862;51.972;4.618;2022-07-29T02:22:21;23458.72;;;14.85;100.00
38058;BME280;23862;51.972;4.618;2022-07-29T02:24:48;22460.47;;;14.85;100.00
38058;BME280;23862;51.972;4.618;2022-07-29T02:27:15;22789.75;;;14.78;100.00
38058;BME280;23862;51.972;4.618;2022-07-29T02:29:42;21790.09;;;14.74;100.00
38058;BME280;23862;51.972;4.618;2022-07-29T02:32:09;21457.31;;;14.74;100.00
38058;BME280;23862;51.972;4.618;2022-07-29T02:34:37;20791.09;;;14.71;100.00
38058;BME280;23862;51.972;4.618;2022-07-29T02:37:03;20130.00;;;14.80;100.00
38058;BME280;23862;51.972;4.618;2022-07-29T02:39:29;20460.91;;;14.76;100.00
38058;BME280;23862;51.972;4.618;2022-07-29T02:41:56;19462.69;;;14.74;100.00
38058;BME280;23862;51.972;4.618;2022-07-29T02:44:24;18797.31;;;14.72;100.00
38058;BME280;23862;51.972;4.618;2022-07-29T02:46:52;18465.00;;;14.72;100.00
38058;BME280;23862;51.972;4.618;2022-07-29T02:49:23;17468.66;;;14.74;100.00
38058;BME280;23862;51.972;4.618;2022-07-29T02:52:12;18462.03;;;14.65;100.00
38058;BME280;23862;51.972;4.618;2022-07-29T02:54:42;17466.63;;;14.68;100.00
38058;BME280;23862;51.972;4.618;2022-07-29T02:57:11;16466.66;;;14.59;100.00
38058;BME280;23862;51.972;4.618;2022-07-29T02:59:40;15139.38;;;14.61;100.00
38058;BME280;23862;51.972;4.618;2022-07-29T03:02:07;13812.50;;;14.63;100.00
38058;BME280;23862;51.972;4.618;2022-07-29T03:04:43;12814.59;;;14.55;100.00
38058;BME280;23862;51.972;4.618;2022-07-29T03:07:10;11487.59;;;14.54;100.00
38058;BME280;23862;51.972;4.618;2022-07-29T03:09:35;11156.16;;;14.55;100.00
38058;BME280;23862;51.972;4.618;2022-07-29T03:12:02;10823.84;;;14.52;100.00
38058;BME280;23862;51.972;4.618;2022-07-29T03:14:29;9497.38;;;14.50;100.00
38058;BME280;23862;51.972;4.618;2022-07-29T03:16:55;9496.81;;;14.48;100.00
38058;BME280;23862;51.972;4.618;2022-07-29T03:19:20;7507.94;;;14.44;100.00
38058;BME280;23862;51.972;4.618;2022-07-29T03:21:52;5189.84;;;14.43;100.00
38058;BME280;23862;51.972;4.618;2022-07-29T03:24:34;4527.09;;;14.39;100.00
38058;BME280;23862;51.972;4.618;2022-07-29T03:27:04;2872.91;;;14.39;100.00
38058;BME280;23862;51.972;4.618;2022-07-29T03:29:30;2210.44;;;14.33;100.00
38058;BME280;23862;51.972;4.618;2022-07-29T03:31:55;1548.88;;;14.31;100.00
38058;BME280;23862;51.972;4.618;2022-07-29T03:34:24;557.69;;;14.36;100.00
38058;BME280;23862;51.972;4.618;2022-07-29T03:36:49;-1094.50;;;14.39;100.00
38058;BME280;23862;51.972;4.618;2022-07-29T03:39:16;-1756.28;;;14.29;100.00
38058;BME280;23862;51.972;4.618;2022-07-29T03:41:42;-2416.94;;;14.28;100.00
38058;BME280;23862;51.972;4.618;2022-07-29T03:44:13;-3077.41;;;14.29;100.00
38058;BME280;23862;51.972;4.618;2022-07-29T03:46:40;-3738.06;;;14.24;100.00
38058;BME280;23862;51.972;4.618;2022-07-29T03:49:06;-4398.09;;;14.28;100.00
38058;BME280;23862;51.972;4.618;2022-07-29T03:51:33;-5058.06;;;14.33;100.00
38058;BME280;23862;51.972;4.618;2022-07-29T03:54:00;-6048.25;;;14.29;100.00
38058;BME280;23862;51.972;4.618;2022-07-29T03:56:26;-7038.03;;;14.27;100.00
38058;BME280;23862;51.972;4.618;2022-07-29T03:58:52;-7367.91;;;14.26;100.00
38058;BME280;23862;51.972;4.618;2022-07-29T04:01:18;-7367.91;;;14.24;100.00
38058;BME280;23862;51.972;4.618;2022-07-29T04:03:50;-7038.06;;;14.27;100.00
38058;BME280;23862;51.972;4.618;2022-07-29T04:06:16;-7038.09;;;14.22;100.00
38058;BME280;23862;51.972;4.618;2022-07-29T04:08:41;-7367.91;;;14.21;100.00
38058;BME280;23862;51.972;4.618;2022-07-29T04:11:06;-7367.91;;;14.23;100.00
38058;BME280;23862;51.972;4.618;2022-07-29T04:13:34;-7697.72;;;14.23;100.00
38058;BME280;23862;51.972;4.618;2022-07-29T04:15:59;-7697.72;;;14.22;100.00
38058;BME280;23862;51.972;4.618;2022-07-29T04:18:24;-7367.91;;;14.25;100.00
38058;BME280;23862;51.972;4.618;2022-07-29T04:20:50;-8687.00;;;14.23;100.00
38058;BME280;23862;51.972;4.618;2022-07-29T04:23:15;-8687.06;;;14.28;100.00
38058;BME280;23862;51.972;4.618;2022-07-29T04:25:41;-8027.53;;;14.24;100.00
38058;BME280;23862;51.972;4.618;2022-07-29T04:28:07;-8027.56;;;14.28;100.00
38058;BME280;23862;51.972;4.618;2022-07-29T04:30:32;-7367.91;;;14.23;100.00
38058;BME280;23862;51.972;4.618;2022-07-29T04:33:00;-8027.53;;;14.24;100.00
38058;BME280;23862;51.972;4.618;2022-07-29T04:35:26;-7367.91;;;14.22;100.00
38058;BME280;23862;51.972;4.618;2022-07-29T04:37:54;-7697.69;;;14.11;100.00
38058;BME280;23862;51.972;4.618;2022-07-29T04:40:19;-7367.94;;;14.11;100.00
38058;BME280;23862;51.972;4.618;2022-07-29T04:42:45;-7367.94;;;14.16;100.00
38058;BME280;23862;51.972;4.618;2022-07-29T04:45:10;-8357.16;;;14.15;100.00
38058;BME280;23862;51.972;4.618;2022-07-29T04:47:35;-9346.28;;;14.21;100.00
38058;BME280;23862;51.972;4.618;2022-07-29T04:50:01;-9346.28;;;14.21;100.00
38058;BME280;23862;51.972;4.618;2022-07-29T04:52:28;-9016.50;;;14.15;100.00
38058;BME280;23862;51.972;4.618;2022-07-29T04:54:54;-8357.19;;;14.18;100.00
38058;BME280;23862;51.972;4.618;2022-07-29T04:57:19;-7697.72;;;14.19;100.00
38058;BME280;23862;51.972;4.618;2022-07-29T04:59:44;-7697.75;;;14.28;100.00
38058;BME280;23862;51.972;4.618;2022-07-29T05:02:09;-6048.16;;;14.33;100.00
38058;BME280;23862;51.972;4.618;2022-07-29T05:04:43;-4397.56;;;14.39;100.00
38058;BME280;23862;51.972;4.618;2022-07-29T05:07:08;-3076.78;;;14.38;100.00
38058;BME280;23862;51.972;4.618;2022-07-29T05:09:34;-1424.84;;;14.40;100.00
38058;BME280;23862;51.972;4.618;2022-07-29T05:12:00;-433.44;;;14.40;100.00
38058;BME280;23862;51.972;4.618;2022-07-29T05:14:39;559.00;;;14.46;100.00
38058;BME280;23862;51.972;4.618;2022-07-29T05:17:04;1220.81;;;14.50;100.00
38058;BME280;23862;51.972;4.618;2022-07-29T05:19:30;-101.22;;;14.54;100.00
38058;BME280;23862;51.972;4.618;2022-07-29T05:21:57;-99.66;;;14.68;100.00
38058;BME280;23862;51.972;4.618;2022-07-29T05:24:23;1223.66;;;14.70;100.00
38058;BME280;23862;51.972;4.618;2022-07-29T05:26:48;1887.94;;;14.88;100.00
38058;BME280;23862;51.972;4.618;2022-07-29T05:29:13;4869.53;;;14.97;100.00
38058;BME280;23862;51.972;4.618;2022-07-29T05:31:39;7859.81;;;15.29;100.00
38058;BME280;23862;51.972;4.618;2022-07-29T05:36:34;18848.06;;;15.94;100.00
38058;BME280;23862;51.972;4.618;2022-07-29T05:38:59;26876.41;;;16.47;100.00
38058;BME280;23862;51.972;4.618;2022-07-29T05:41:35;41327.38;;;17.31;100.00
38058;BME280;23862;51.972;4.618;2022-07-29T05:44:02;74688.50;;;17.28;100.00
38058;BME280;23862;51.972;4.618;2022-07-29T05:46:27;118307.72;;;17.61;100.00
38058;BME280;23862;51.972;4.618;2022-07-29T05:48:52;147119.75;;;17.46;100.00
38058;BME280;23862;51.972;4.618;2022-07-29T05:51:18;147018.78;;;17.05;100.00
38058;BME280;23862;51.972;4.618;2022-07-29T05:53:44;147054.56;;;17.19;100.00
38058;BME280;23862;51.972;4.618;2022-07-29T05:56:11;147123.59;;;17.47;100.00
38058;BME280;23862;51.972;4.618;2022-07-29T05:58:36;147334.66;;;18.32;100.00
38058;BME280;23862;51.972;4.618;2022-07-29T06:01:02;147620.09;;;19.47;100.00
38058;BME280;23862;51.972;4.618;2022-07-29T06:03:27;147694.41;;;19.77;100.00
38058;BME280;23862;51.972;4.618;2022-07-29T06:05:52;147682.84;;;19.72;100.00
38058;BME280;23862;51.972;4.618;2022-07-29T06:08:18;147529.19;;;19.10;100.00
38058;BME280;23862;51.972;4.618;2022-07-29T06:10:43;147329.53;;;18.30;100.00
38058;BME280;23862;51.972;4.618;2022-07-29T06:13:11;147195.22;;;17.76;100.00
38058;BME280;23862;51.972;4.618;2022-07-29T06:15:36;147064.81;;;17.23;100.00
38058;BME280;23862;51.972;4.618;2022-07-29T06:18:01;147072.47;;;17.27;100.00
38058;BME280;23862;51.972;4.618;2022-07-29T06:20:30;146970.16;;;16.85;100.00
38058;BME280;23862;51.972;4.618;2022-07-29T06:22:57;146975.34;;;16.88;100.00
38058;BME280;23862;51.972;4.618;2022-07-29T06:25:22;147026.44;;;17.08;100.00
38058;BME280;23862;51.972;4.618;2022-07-29T06:27:47;147021.34;;;17.06;100.00
38058;BME280;23862;51.972;4.618;2022-07-29T06:30:13;147105.69;;;17.40;100.00
38058;BME280;23862;51.972;4.618;2022-07-29T06:32:47;146997.03;;;16.96;100.00
38058;BME280;23862;51.972;4.618;2022-07-29T06:35:14;147043.06;;;17.15;100.00
38058;BME280;23862;51.972;4.618;2022-07-29T06:37:39;147105.69;;;17.40;100.00
38058;BME280;23862;51.972;4.618;2022-07-29T06:40:04;147073.72;;;17.27;100.00
38058;BME280;23862;51.972;4.618;2022-07-29T06:42:49;147145.34;;;17.56;100.00
38058;BME280;23862;51.972;4.618;2022-07-29T06:45:14;147086.50;;;17.32;100.00
38058;BME280;23862;51.972;4.618;2022-07-29T06:47:39;147046.88;;;17.16;100.00
38058;BME280;23862;51.972;4.618;2022-07-29T06:50:05;147041.78;;;17.14;100.00
38058;BME280;23862;51.972;4.618;2022-07-29T06:52:30;147021.34;;;17.06;100.00
38058;BME280;23862;51.972;4.618;2022-07-29T06:54:56;146965.06;;;16.83;100.00
38058;BME280;23862;51.972;4.618;2022-07-29T06:57:27;146984.28;;;16.91;100.00
38058;BME280;23862;51.972;4.618;2022-07-29T06:59:55;147023.88;;;17.07;100.00
38058;BME280;23862;51.972;4.618;2022-07-29T07:02:22;147090.34;;;17.34;100.00
38058;BME280;23862;51.972;4.618;2022-07-29T07:04:47;147184.97;;;17.72;100.00
38058;BME280;23862;51.972;4.618;2022-07-29T07:07:12;147250.25;;;17.98;100.00
38058;BME280;23862;51.972;4.618;2022-07-29T07:09:38;147374.31;;;18.48;100.00
38058;BME280;23862;51.972;4.618;2022-07-29T07:12:03;147419.13;;;18.66;100.00
38058;BME280;23862;51.972;4.618;2022-07-29T07:14:30;147541.97;;;19.15;100.00
38058;BME280;23862;51.972;4.618;2022-07-29T07:16:55;147517.69;;;19.06;100.00
38058;BME280;23862;51.972;4.618;2022-07-29T07:19:21;147685.38;;;19.73;100.00
38058;BME280;23862;51.972;4.618;2022-07-29T07:21:46;147709.78;;;19.83;100.00
38058;BME280;23862;51.972;4.618;2022-07-29T07:24:17;147649.53;;;19.59;100.00
38058;BME280;23862;51.972;4.618;2022-07-29T07:26:42;147682.84;;;19.72;100.00
38058;BME280;23862;51.972;4.618;2022-07-29T07:29:07;147837.84;;;20.34;100.00
38058;BME280;23862;51.972;4.618;2022-07-29T07:31:33;148007.06;;;21.02;100.00
38058;BME280;23862;51.972;4.618;2022-07-29T07:34:00;148219.88;;;21.87;100.00
38058;BME280;23862;51.972;4.618;2022-07-29T07:36:25;148194.25;;;21.77;100.00
38058;BME280;23862;51.972;4.618;2022-07-29T07:38:51;148087.75;;;21.34;100.00
38058;BME280;23862;51.972;4.618;2022-07-29T07:41:16;148089.06;;;21.35;100.00
38058;BME280;23862;51.972;4.618;2022-07-29T07:43:43;148221.19;;;21.88;100.00
38058;BME280;23862;51.972;4.618;2022-07-29T07:46:08;148163.47;;;21.65;100.00
38058;BME280;23862;51.972;4.618;2022-07-29T07:48:34;147964.75;;;20.85;100.00
38058;BME280;23862;51.972;4.618;2022-07-29T07:50:59;148171.16;;;21.68;100.00
38058;BME280;23862;51.972;4.618;2022-07-29T07:53:25;148246.81;;;21.98;100.00
38058;BME280;23862;51.972;4.618;2022-07-29T07:55:50;148319.91;;;22.28;100.00
38058;BME280;23862;51.972;4.618;2022-07-29T07:58:15;148294.28;;;22.17;100.00
38058;BME280;23862;51.972;4.618;2022-07-29T08:00:41;147994.19;;;20.97;100.00
38058;BME280;23862;51.972;4.618;2022-07-29T08:03:06;147925.00;;;20.69;100.00
38058;BME280;23862;51.972;4.618;2022-07-29T08:05:32;147944.22;;;20.77;100.00
38058;BME280;23862;51.972;4.618;2022-07-29T08:07:59;148082.66;;;21.32;100.00
38058;BME280;23862;51.972;4.618;2022-07-29T08:10:24;148116.00;;;21.46;100.00
38058;BME280;23862;51.972;4.618;2022-07-29T08:13:22;148168.59;;;21.67;100.00
38058;BME280;23862;51.972;4.618;2022-07-29T08:15:48;148420.03;;;22.68;100.00
38058;BME280;23862;51.972;4.618;2022-07-29T08:18:22;148432.84;;;22.73;100.00
38058;BME280;23862;51.972;4.618;2022-07-29T08:20:47;148539.44;;;23.16;100.00
38058;BME280;23862;51.972;4.618;2022-07-29T08:23:17;148601.06;;;23.40;100.00
38058;BME280;23862;51.972;4.618;2022-07-29T08:25:44;148663.94;;;23.65;100.00
38058;BME280;23862;51.972;4.618;2022-07-29T08:28:10;148687.06;;;23.75;100.00
38058;BME280;23862;51.972;4.618;2022-07-29T08:30:35;148742.31;;;23.97;100.00
38058;BME280;23862;51.972;4.618;2022-07-29T08:33:00;148603.59;;;23.41;100.00
38058;BME280;23862;51.972;4.618;2022-07-29T08:35:25;148571.50;;;23.28;100.00
38058;BME280;23862;51.972;4.618;2022-07-29T08:37:51;148728.22;;;23.91;100.00
38058;BME280;23862;51.972;4.618;2022-07-29T08:40:17;148635.72;;;23.54;100.00
38058;BME280;23862;51.972;4.618;2022-07-29T08:42:49;148298.13;;;22.19;100.00
38058;BME280;23862;51.972;4.618;2022-07-29T08:45:15;148570.25;;;23.28;100.00
38058;BME280;23862;51.972;4.618;2022-07-29T08:47:40;148667.81;;;23.67;100.00
38058;BME280;23862;51.972;4.618;2022-07-29T08:50:06;148607.44;;;23.43;100.00
38058;BME280;23862;51.972;4.618;2022-07-29T08:52:35;148640.84;;;23.56;100.00
38058;BME280;23862;51.972;4.618;2022-07-29T08:55:01;148611.28;;;23.44;100.00
38058;BME280;23862;51.972;4.618;2022-07-29T08:57:26;148777.00;;;24.11;100.00
38058;BME280;23862;51.972;4.618;2022-07-29T08:59:52;148896.50;;;24.59;100.00
38058;BME280;23862;51.972;4.618;2022-07-29T09:02:22;148669.06;;;23.67;100.00
38058;BME280;23862;51.972;4.618;2022-07-29T09:04:48;148688.34;;;23.75;100.00
38058;BME280;23862;51.972;4.618;2022-07-29T09:07:17;148833.53;;;24.33;100.00
38058;BME280;23862;51.972;4.618;2022-07-29T09:09:42;149018.53;;;25.07;100.00
38058;BME280;23862;51.972;4.618;2022-07-29T09:12:08;148884.88;;;24.54;100.00
38058;BME280;23862;51.972;4.618;2022-07-29T09:14:34;148568.97;;;23.27;100.00
38058;BME280;23862;51.972;4.618;2022-07-29T09:16:59;148697.34;;;23.79;100.00
38058;BME280;23862;51.972;4.618;2022-07-29T09:19:43;148675.50;;;23.70;100.00
38058;BME280;23862;51.972;4.618;2022-07-29T09:22:09;148729.47;;;23.92;100.00
38058;BME280;23862;51.972;4.618;2022-07-29T09:24:45;148712.81;;;23.85;100.00
38058;BME280;23862;51.972;4.618;2022-07-29T09:29:37;148905.47;;;24.62;100.00
38058;BME280;23862;51.972;4.618;2022-07-29T09:32:05;148854.06;;;24.42;100.00
38058;BME280;23862;51.972;4.618;2022-07-29T09:34:34;148838.63;;;24.35;100.00
38058;BME280;23862;51.972;4.618;2022-07-29T09:36:59;148935.03;;;24.74;100.00
38058;BME280;23862;51.972;4.618;2022-07-29T09:39:28;148800.09;;;24.20;100.00
38058;BME280;23862;51.972;4.618;2022-07-29T09:41:54;148779.56;;;24.12;100.00
38058;BME280;23862;51.972;4.618;2022-07-29T09:44:21;148877.19;;;24.51;100.00
38058;BME280;23862;51.972;4.618;2022-07-29T09:47:00;148995.41;;;24.98;100.00
38058;BME280;23862;51.972;4.618;2022-07-29T09:49:34;148810.41;;;24.24;100.00
38058;BME280;23862;51.972;4.618;2022-07-29T09:52:03;148774.41;;;24.10;100.00
38058;BME280;23862;51.972;4.618;2022-07-29T09:54:29;148766.75;;;24.07;100.00
38058;BME280;23862;51.972;4.618;2022-07-29T09:56:59;148683.22;;;23.73;100.00
38058;BME280;23862;51.972;4.618;2022-07-29T09:59:24;148529.16;;;23.11;100.00
38058;BME280;23862;51.972;4.618;2022-07-29T10:01:51;148325.06;;;22.30;100.00
38058;BME280;23862;51.972;4.618;2022-07-29T10:04:19;148402.06;;;22.61;100.00
38058;BME280;23862;51.972;4.618;2022-07-29T10:07:02;148538.16;;;23.15;100.00
38058;BME280;23862;51.972;4.618;2022-07-29T10:09:30;148556.09;;;23.22;100.00
38058;BME280;23862;51.972;4.618;2022-07-29T10:12:28;148548.41;;;23.19;100.00
38058;BME280;23862;51.972;4.618;2022-07-29T10:14:47;148431.59;;;22.72;100.00
38058;BME280;23862;51.972;4.618;2022-07-29T10:17:12;148463.66;;;22.85;100.00
38058;BME280;23862;51.972;4.618;2022-07-29T10:19:38;148477.78;;;22.91;100.00
38058;BME280;23862;51.972;4.618;2022-07-29T10:22:06;148489.34;;;22.95;100.00
38058;BME280;23862;51.972;4.618;2022-07-29T10:24:39;148647.28;;;23.59;100.00
38058;BME280;23862;51.972;4.618;2022-07-29T10:27:05;148548.41;;;23.19;100.00
38058;BME280;23862;51.972;4.618;2022-07-29T10:29:30;148545.88;;;23.18;100.00
38058;BME280;23862;51.972;4.618;2022-07-29T10:34:57;148615.16;;;23.46;100.00
38058;BME280;23862;51.972;4.618;2022-07-29T10:37:28;148774.41;;;24.10;100.00
38058;BME280;23862;51.972;4.618;2022-07-29T10:42:22;148828.34;;;24.31;100.00
38058;BME280;23862;51.972;4.618;2022-07-29T10:44:49;148730.75;;;23.92;100.00
38058;BME280;23862;51.972;4.618;2022-07-29T10:47:22;148710.22;;;23.84;100.00
38058;BME280;23862;51.972;4.618;2022-07-29T10:50:21;148760.31;;;24.04;100.00
38058;BME280;23862;51.972;4.618;2022-07-29T11:00:40;148811.66;;;24.25;100.00
38058;BME280;23862;51.972;4.618;2022-07-29T11:03:08;148699.88;;;23.80;100.00
38058;BME280;23862;51.972;4.618;2022-07-29T11:08:19;148819.38;;;24.28;100.00
38058;BME280;23862;51.972;4.618;2022-07-29T11:10:50;148805.22;;;24.22;100.00
38058;BME280;23862;51.972;4.618;2022-07-29T11:16:00;148874.59;;;24.50;100.00
38058;BME280;23862;51.972;4.618;2022-07-29T11:18:27;148915.78;;;24.66;100.00
38058;BME280;23862;51.972;4.618;2022-07-29T11:20:52;149008.28;;;25.03;100.00
38058;BME280;23862;51.972;4.618;2022-07-29T11:28:33;148779.56;;;24.12;100.00
38058;BME280;23862;51.972;4.618;2022-07-29T11:30:59;148756.44;;;24.02;100.00
38058;BME280;23862;51.972;4.618;2022-07-29T11:33:32;148851.47;;;24.41;100.00
38058;BME280;23862;51.972;4.618;2022-07-29T11:36:11;148941.50;;;24.77;100.00
38058;BME280;23862;51.972;4.618;2022-07-29T11:38:37;148967.16;;;24.87;100.00
38058;BME280;23862;51.972;4.618;2022-07-29T11:43:52;148809.09;;;24.24;100.00
38058;BME280;23862;51.972;4.618;2022-07-29T11:46:41;148658.81;;;23.63;100.00
38058;BME280;23862;51.972;4.618;2022-07-29T11:49:03;148784.69;;;24.14;100.00
38058;BME280;23862;51.972;4.618;2022-07-29T11:51:29;148809.09;;;24.24;100.00
38058;BME280;23862;51.972;4.618;2022-07-29T11:56:31;149057.09;;;25.23;100.00
38058;BME280;23862;51.972;4.618;2022-07-29T11:59:06;149106.00;;;25.42;100.00
38058;BME280;23862;51.972;4.618;2022-07-29T12:01:32;148965.88;;;24.86;100.00
38058;BME280;23862;51.972;4.618;2022-07-29T12:04:08;149033.97;;;25.14;100.00
38058;BME280;23862;51.972;4.618;2022-07-29T12:06:34;149089.31;;;25.36;100.00
38058;BME280;23862;51.972;4.618;2022-07-29T12:08:59;149107.28;;;25.43;100.00
38058;BME280;23862;51.972;4.618;2022-07-29T12:11:25;149026.25;;;25.11;100.00
38058;BME280;23862;51.972;4.618;2022-07-29T12:13:53;148926.06;;;24.70;100.00
38058;BME280;23862;51.972;4.618;2022-07-29T12:16:19;149003.13;;;25.01;100.00
38058;BME280;23862;51.972;4.618;2022-07-29T12:18:55;149024.97;;;25.10;100.00
38058;BME280;23862;51.972;4.618;2022-07-29T12:21:20;149035.28;;;25.14;100.00
38058;BME280;23862;51.972;4.618;2022-07-29T12:23:56;148998.00;;;24.99;100.00
38058;BME280;23862;51.972;4.618;2022-07-29T12:26:22;149057.09;;;25.23;100.00
38058;BME280;23862;51.972;4.618;2022-07-29T12:28:48;149079.00;;;25.32;100.00
38058;BME280;23862;51.972;4.618;2022-07-29T12:31:14;149126.56;;;25.51;100.00
38058;BME280;23862;51.972;4.618;2022-07-29T12:33:40;148905.47;;;24.62;100.00
38058;BME280;23862;51.972;4.618;2022-07-29T12:36:07;148941.50;;;24.77;100.00
38058;BME280;23862;51.972;4.618;2022-07-29T12:38:34;149018.53;;;25.07;100.00
38058;BME280;23862;51.972;4.618;2022-07-29T12:41:02;149001.84;;;25.01;100.00
38058;BME280;23862;51.972;4.618;2022-07-29T12:43:29;149009.56;;;25.04;100.00
38058;BME280;23862;51.972;4.618;2022-07-29T12:45:55;148938.91;;;24.76;100.00
38058;BME280;23862;51.972;4.618;2022-07-29T12:48:37;148917.03;;;24.67;100.00
38058;BME280;23862;51.972;4.618;2022-07-29T12:51:04;148935.03;;;24.74;100.00
38058;BME280;23862;51.972;4.618;2022-07-29T12:53:31;148960.72;;;24.84;100.00
38058;BME280;23862;51.972;4.618;2022-07-29T12:55:57;149027.56;;;25.11;100.00
38058;BME280;23862;51.972;4.618;2022-07-29T13:01:15;149131.72;;;25.53;100.00
38058;BME280;23862;51.972;4.618;2022-07-29T13:03:46;149022.41;;;25.09;100.00
38058;BME280;23862;51.972;4.618;2022-07-29T13:09:05;149069.97;;;25.28;100.00
38058;BME280;23862;51.972;4.618;2022-07-29T13:11:36;149064.81;;;25.26;100.00
38058;BME280;23862;51.972;4.618;2022-07-29T13:14:03;149085.47;;;25.34;100.00
38058;BME280;23862;51.972;4.618;2022-07-29T13:16:28;149085.47;;;25.34;100.00
38058;BME280;23862;51.972;4.618;2022-07-29T13:19:07;149216.53;;;25.87;100.00
38058;BME280;23862;51.972;4.618;2022-07-29T13:21:32;149203.69;;;25.82;100.00
38058;BME280;23862;51.972;4.618;2022-07-29T13:24:00;149185.69;;;25.74;100.00
38058;BME280;23862;51.972;4.618;2022-07-29T13:26:26;149073.88;;;25.30;100.00
38058;BME280;23862;51.972;4.618;2022-07-29T13:28:51;149113.72;;;25.46;100.00
38058;BME280;23862;51.972;4.618;2022-07-29T13:31:16;149108.59;;;25.43;100.00
38058;BME280;23862;51.972;4.618;2022-07-29T13:33:43;149144.56;;;25.58;100.00
38058;BME280;23862;51.972;4.618;2022-07-29T13:36:08;149314.34;;;26.26;100.00
38058;BME280;23862;51.972;4.618;2022-07-29T13:38:33;149289.88;;;26.16;100.00
38058;BME280;23862;51.972;4.618;2022-07-29T13:40:58;149230.69;;;25.92;100.00